createdAt,value
2023-08-15T00:00:37.932Z,80.10
2023-08-15T00:01:43.087Z,80.30
2023-08-15T00:02:46.861Z,80.50
2023-08-15T00:03:51.884Z,80.70
2023-08-15T00:04:56.113Z,80.80
2023-08-15T00:06:22.193Z,80.80
2023-08-15T00:07:27.560Z,81.00
2023-08-15T00:08:32.414Z,80.90
2023-08-15T00:09:36.268Z,80.90
2023-08-15T00:10:42.464Z,81.00
2023-08-15T00:11:46.192Z,81.00
2023-08-15T00:12:50.641Z,81.00
2023-08-15T00:13:59.464Z,81.00
2023-08-15T00:15:05.346Z,81.10
2023-08-15T00:16:09.684Z,81.30
2023-08-15T00:17:14.917Z,81.40
2023-08-15T00:18:18.785Z,81.40
2023-08-15T00:19:23.390Z,81.60
2023-08-15T00:20:27.630Z,81.70
2023-08-15T00:21:32.687Z,81.70
2023-08-15T00:22:36.686Z,81.80
2023-08-15T00:23:41.843Z,81.90
2023-08-15T00:24:46.208Z,81.90
2023-08-15T00:25:52.102Z,81.90
2023-08-15T00:26:55.480Z,81.90
2023-08-15T00:28:00.315Z,81.90
2023-08-15T00:29:05.587Z,82.00
2023-08-15T00:30:11.793Z,82.00
2023-08-15T00:31:15.362Z,82.10
2023-08-15T00:32:19.785Z,82.10
2023-08-15T00:33:24.129Z,82.10
2023-08-15T00:34:29.386Z,82.10
2023-08-15T00:35:33.227Z,82.10
2023-08-15T00:36:38.636Z,82.20
2023-08-15T00:37:42.336Z,82.20
2023-08-15T00:38:47.864Z,82.30
2023-08-15T00:39:51.852Z,82.30
2023-08-15T00:40:57.106Z,82.30
2023-08-15T00:42:00.901Z,82.20
2023-08-15T00:43:05.589Z,82.20
2023-08-15T00:44:10.116Z,82.10
2023-08-15T00:45:15.195Z,82.20
2023-08-15T00:46:18.887Z,82.20
2023-08-15T00:47:24.352Z,82.20
2023-08-15T00:48:31.289Z,82.20
2023-08-15T00:49:35.630Z,82.10
2023-08-15T00:50:39.493Z,82.10
2023-08-15T00:51:44.345Z,82.10
2023-08-15T00:52:48.184Z,82.10
2023-08-15T00:53:51.978Z,82.00
2023-08-15T00:54:57.024Z,81.90
2023-08-15T00:56:00.800Z,81.90
2023-08-15T00:57:08.543Z,81.90
2023-08-15T00:58:13.661Z,82.00
2023-08-15T00:59:19.303Z,82.10
2023-08-15T01:00:23.162Z,82.10
2023-08-15T01:01:27.858Z,82.00
2023-08-15T01:02:31.952Z,81.90
2023-08-15T01:03:37.775Z,81.80
2023-08-15T01:04:47.052Z,81.80
2023-08-15T01:05:51.712Z,81.90
2023-08-15T01:06:56.620Z,82.00
2023-08-15T01:08:00.641Z,82.00
2023-08-15T01:09:04.008Z,82.10
2023-08-15T01:10:10.588Z,82.20
2023-08-15T01:11:13.839Z,82.20
2023-08-15T01:12:31.534Z,82.20
2023-08-15T01:13:44.689Z,82.20
2023-08-15T01:14:55.244Z,82.40
2023-08-15T01:16:00.474Z,82.30
2023-08-15T01:17:13.526Z,82.40
2023-08-15T01:18:22.481Z,82.50
2023-08-15T01:19:38.917Z,82.50
2023-08-15T01:20:45.772Z,82.70
2023-08-15T01:21:54.957Z,82.70
2023-08-15T01:23:02.423Z,82.70
2023-08-15T01:24:10.539Z,82.70
2023-08-15T01:25:13.912Z,82.70
2023-08-15T01:26:21.078Z,82.80
2023-08-15T01:27:24.851Z,82.80
2023-08-15T01:28:28.995Z,82.70
2023-08-15T01:29:32.644Z,82.60
2023-08-15T01:30:37.810Z,82.60
2023-08-15T01:31:53.450Z,82.60
2023-08-15T01:33:08.165Z,82.60
2023-08-15T01:34:19.183Z,82.40
2023-08-15T01:35:36.145Z,82.30
2023-08-15T01:36:46.693Z,82.20
2023-08-15T01:38:01.964Z,82.10
2023-08-15T01:39:09.493Z,82.00
2023-08-15T01:40:18.246Z,82.00
2023-08-15T01:41:25.426Z,82.10
2023-08-15T01:42:32.672Z,82.00
2023-08-15T01:43:37.909Z,82.00
2023-08-15T01:44:42.068Z,82.10
2023-08-15T01:45:46.817Z,82.10
2023-08-15T01:46:50.983Z,82.00
2023-08-15T01:47:56.079Z,81.90
2023-08-15T01:49:01.072Z,82.00
2023-08-15T01:50:09.989Z,82.00
2023-08-15T01:51:14.140Z,82.10
2023-08-15T01:52:19.170Z,82.10
2023-08-15T01:53:22.577Z,82.10
2023-08-15T01:54:29.132Z,82.10
2023-08-15T01:55:34.006Z,82.10
2023-08-15T01:56:38.720Z,82.00
2023-08-15T01:57:41.933Z,82.00
2023-08-15T01:58:47.885Z,82.10
2023-08-15T01:59:59.401Z,82.10
2023-08-15T02:01:05.458Z,82.10
2023-08-15T02:02:09.439Z,82.10
2023-08-15T02:03:19.445Z,82.20
2023-08-15T02:04:23.255Z,82.30
2023-08-15T02:05:28.529Z,82.30
2023-08-15T02:06:32.076Z,82.30
2023-08-15T02:07:38.959Z,82.30
2023-08-15T02:08:42.995Z,82.50
2023-08-15T02:09:49.047Z,82.50
2023-08-15T02:10:53.583Z,82.50
2023-08-15T02:11:58.031Z,82.60
2023-08-15T02:13:01.739Z,82.60
2023-08-15T02:14:07.171Z,82.50
2023-08-15T02:15:11.018Z,82.50
2023-08-15T02:16:15.386Z,82.50
2023-08-15T02:17:19.449Z,82.60
2023-08-15T02:18:24.488Z,82.60
2023-08-15T02:19:28.314Z,82.80
2023-08-15T02:20:32.193Z,82.80
2023-08-15T02:21:37.023Z,82.80
2023-08-15T02:22:40.330Z,82.80
2023-08-15T02:23:48.164Z,82.80
2023-08-15T02:24:53.186Z,82.80
2023-08-15T02:25:58.085Z,83.00
2023-08-15T02:27:02.201Z,83.00
2023-08-15T02:28:08.919Z,83.00
2023-08-15T02:29:14.614Z,83.10
2023-08-15T02:30:20.241Z,83.10
2023-08-15T02:31:27.187Z,83.20
2023-08-15T02:32:33.769Z,83.20
2023-08-15T02:33:36.933Z,83.20
2023-08-15T02:34:41.571Z,83.30
2023-08-15T02:35:44.431Z,83.30
2023-08-15T02:36:49.081Z,83.40
2023-08-15T02:37:52.335Z,83.40
2023-08-15T02:38:56.250Z,83.50
2023-08-15T02:40:00.479Z,83.60
2023-08-15T02:41:04.480Z,83.60
2023-08-15T02:42:07.505Z,83.60
2023-08-15T02:43:11.620Z,83.70
2023-08-15T02:44:14.928Z,83.70
2023-08-15T02:45:19.015Z,83.80
2023-08-15T02:46:22.003Z,83.80
2023-08-15T02:47:25.973Z,83.90
2023-08-15T02:48:28.738Z,83.90
2023-08-15T02:49:32.821Z,84.00
2023-08-15T02:50:38.665Z,84.20
2023-08-15T02:51:45.478Z,84.10
2023-08-15T02:52:50.998Z,84.10
2023-08-15T02:53:55.326Z,84.10
2023-08-15T02:54:59.865Z,84.20
2023-08-15T02:56:03.853Z,84.10
2023-08-15T02:57:06.728Z,84.20
2023-08-15T02:58:10.900Z,84.20
2023-08-15T02:59:14.905Z,84.30
2023-08-15T03:00:19.318Z,84.50
2023-08-15T03:01:23.059Z,84.60
2023-08-15T03:02:29.482Z,84.60
2023-08-15T03:03:33.824Z,84.60
2023-08-15T03:04:38.313Z,84.70
2023-08-15T03:05:41.356Z,84.70
2023-08-15T03:06:45.668Z,84.70
2023-08-15T03:07:48.762Z,84.70
2023-08-15T03:08:52.953Z,84.80
2023-08-15T03:09:56.073Z,84.90
2023-08-15T03:11:01.411Z,84.90
2023-08-15T03:12:04.691Z,84.90
2023-08-15T03:13:11.421Z,84.80
2023-08-15T03:14:14.392Z,84.90
2023-08-15T03:15:18.449Z,84.90
2023-08-15T03:16:21.467Z,84.90
2023-08-15T03:17:25.953Z,85.00
2023-08-15T03:18:29.252Z,85.00
2023-08-15T03:19:33.201Z,85.30
2023-08-15T03:20:36.418Z,85.30
2023-08-15T03:21:40.399Z,85.20
2023-08-15T03:22:44.398Z,85.40
2023-08-15T03:23:49.038Z,85.70
2023-08-15T03:24:51.946Z,85.90
2023-08-15T03:26:02.748Z,85.70
2023-08-15T03:27:09.702Z,85.50
2023-08-15T03:28:14.010Z,85.60
2023-08-15T03:29:17.376Z,85.60
2023-08-15T03:30:22.263Z,85.60
2023-08-15T03:31:26.454Z,85.60
2023-08-15T03:32:34.909Z,85.60
2023-08-15T03:33:41.781Z,85.70
2023-08-15T03:34:46.428Z,85.70
2023-08-15T03:35:51.526Z,85.60
2023-08-15T03:36:56.443Z,85.60
2023-08-15T03:37:59.903Z,85.60
2023-08-15T03:39:04.054Z,85.70
2023-08-15T03:40:12.833Z,85.80
2023-08-15T03:41:18.975Z,85.70
2023-08-15T03:42:22.313Z,85.70
2023-08-15T03:43:27.138Z,85.70
2023-08-15T03:44:31.145Z,85.70
2023-08-15T03:45:36.358Z,85.70
2023-08-15T03:46:42.162Z,85.80
2023-08-15T03:47:47.131Z,85.80
2023-08-15T03:48:50.232Z,86.00
2023-08-15T03:50:00.689Z,86.00
2023-08-15T03:51:05.921Z,85.90
2023-08-15T03:52:11.401Z,86.00
2023-08-15T03:53:16.070Z,85.90
2023-08-15T03:54:20.888Z,85.90
2023-08-15T03:55:25.256Z,85.90
2023-08-15T03:56:32.023Z,86.10
2023-08-15T03:57:36.332Z,86.10
2023-08-15T03:58:42.104Z,86.10
2023-08-15T03:59:49.152Z,86.10
2023-08-15T04:00:54.016Z,86.10
2023-08-15T04:01:59.359Z,86.20
2023-08-15T04:03:03.763Z,86.20
2023-08-15T04:04:09.937Z,86.30
2023-08-15T04:05:14.357Z,86.30
2023-08-15T04:06:19.550Z,86.40
2023-08-15T04:07:24.018Z,86.50
2023-08-15T04:08:29.343Z,86.80
2023-08-15T04:09:33.278Z,86.90
2023-08-15T04:10:41.276Z,86.80
2023-08-15T04:11:46.560Z,86.90
2023-08-15T04:12:51.309Z,86.90
2023-08-15T04:13:58.256Z,87.00
2023-08-15T04:15:03.773Z,87.30
2023-08-15T04:16:07.748Z,87.30
2023-08-15T04:17:14.962Z,87.30
2023-08-15T04:18:18.459Z,87.60
2023-08-15T04:19:23.802Z,87.60
2023-08-15T04:20:30.787Z,87.50
2023-08-15T04:21:35.430Z,87.70
2023-08-15T04:22:40.308Z,87.80
2023-08-15T04:23:45.121Z,87.60
2023-08-15T04:24:48.475Z,87.60
2023-08-15T04:25:53.491Z,87.60
2023-08-15T04:27:01.087Z,87.60
2023-08-15T04:28:06.313Z,87.50
2023-08-15T04:29:10.846Z,87.80
2023-08-15T04:30:15.956Z,87.80
2023-08-15T04:31:19.794Z,87.80
2023-08-15T04:32:25.268Z,87.80
2023-08-15T04:33:29.082Z,87.80
2023-08-15T04:34:33.569Z,88.00
2023-08-15T04:35:37.304Z,88.10
2023-08-15T04:36:46.042Z,88.20
2023-08-15T04:37:49.776Z,88.20
2023-08-15T04:38:54.479Z,88.10
2023-08-15T04:39:57.863Z,88.40
2023-08-15T04:41:02.882Z,88.80
2023-08-15T04:42:08.685Z,88.90
2023-08-15T04:43:14.335Z,88.90
2023-08-15T04:44:17.972Z,88.80
2023-08-15T04:45:22.608Z,88.80
2023-08-15T04:46:26.677Z,88.70
2023-08-15T04:47:31.673Z,88.70
2023-08-15T04:48:36.203Z,88.80
2023-08-15T04:49:40.930Z,88.80
2023-08-15T04:50:44.088Z,88.90
2023-08-15T04:51:50.659Z,88.90
2023-08-15T04:52:54.880Z,88.90
2023-08-15T04:54:01.881Z,88.80
2023-08-15T04:55:05.961Z,88.90
2023-08-15T04:56:13.268Z,89.20
2023-08-15T04:57:19.027Z,89.30
2023-08-15T04:58:24.192Z,89.20
2023-08-15T04:59:27.828Z,89.30
2023-08-15T05:00:36.080Z,89.20
2023-08-15T05:01:43.082Z,89.30
2023-08-15T05:02:48.257Z,89.50
2023-08-15T05:03:52.656Z,89.50
2023-08-15T05:04:57.179Z,89.50
2023-08-15T05:06:01.118Z,89.60
2023-08-15T05:07:05.929Z,89.60
2023-08-15T05:08:10.028Z,89.60
2023-08-15T05:09:14.465Z,89.70
2023-08-15T05:10:21.055Z,89.90
2023-08-15T05:11:26.876Z,89.80
2023-08-15T05:12:35.497Z,90.00
2023-08-15T05:13:44.840Z,89.90
2023-08-15T05:14:51.243Z,89.80
2023-08-15T05:15:56.423Z,89.50
2023-08-15T05:17:00.525Z,89.30
2023-08-15T05:18:06.367Z,89.00
2023-08-15T05:19:11.015Z,88.90
2023-08-15T05:20:19.067Z,88.60
2023-08-15T05:21:25.873Z,88.60
2023-08-15T05:22:30.747Z,88.50
2023-08-15T05:23:34.683Z,88.20
2023-08-15T05:24:42.795Z,87.90
2023-08-15T05:25:48.770Z,87.90
2023-08-15T05:26:57.749Z,87.80
2023-08-15T05:28:06.101Z,87.50
2023-08-15T05:29:13.880Z,87.30
2023-08-15T05:30:18.094Z,87.20
2023-08-15T05:31:23.918Z,87.00
2023-08-15T05:32:27.321Z,86.80
2023-08-15T05:33:32.600Z,86.10
2023-08-15T05:34:36.408Z,86.10
2023-08-15T05:35:42.277Z,85.70
2023-08-15T05:36:46.155Z,85.50
2023-08-15T05:37:50.927Z,84.90
2023-08-15T05:38:54.428Z,84.70
2023-08-15T05:40:01.281Z,84.50
2023-08-15T05:41:07.015Z,84.20
2023-08-15T05:42:12.191Z,83.90
2023-08-15T05:43:18.527Z,83.60
2023-08-15T05:44:23.198Z,83.30
2023-08-15T05:45:27.778Z,82.80
2023-08-15T05:46:34.475Z,82.50
2023-08-15T05:47:39.528Z,82.10
2023-08-15T05:48:43.322Z,81.90
2023-08-15T05:49:48.884Z,81.70
2023-08-15T05:50:52.319Z,81.40
2023-08-15T05:52:03.025Z,81.10
2023-08-15T05:53:07.986Z,80.90
2023-08-15T05:54:13.558Z,80.30
2023-08-15T05:55:17.476Z,80.10
2023-08-15T05:56:22.381Z,79.70
2023-08-15T05:57:26.648Z,79.10
2023-08-15T05:58:33.767Z,78.80
2023-08-15T05:59:37.339Z,78.50
2023-08-15T06:00:42.618Z,78.30
2023-08-15T06:01:48.124Z,78.10
2023-08-15T06:02:53.800Z,77.80
2023-08-15T06:03:57.866Z,77.50
2023-08-15T06:05:10.710Z,77.10
2023-08-15T06:06:15.443Z,77.00
2023-08-15T06:07:20.437Z,76.50
2023-08-15T06:08:26.938Z,75.80
2023-08-15T06:09:32.579Z,75.30
2023-08-15T06:10:37.085Z,75.00
2023-08-15T06:11:42.071Z,74.70
2023-08-15T06:12:49.412Z,74.60
2023-08-15T06:13:58.695Z,74.40
2023-08-15T06:15:02.555Z,74.40
2023-08-15T06:16:08.235Z,74.30
2023-08-15T06:17:13.708Z,74.40
2023-08-15T06:18:19.054Z,74.60
2023-08-15T06:19:23.308Z,74.60
2023-08-15T06:20:27.639Z,74.80
2023-08-15T06:21:30.790Z,75.10
2023-08-15T06:22:35.792Z,75.40
2023-08-15T06:23:39.832Z,75.60
2023-08-15T06:24:45.392Z,76.00
2023-08-15T06:25:52.251Z,76.20
2023-08-15T06:26:57.194Z,76.60
2023-08-15T06:28:00.535Z,76.90
2023-08-15T06:29:08.406Z,77.20
2023-08-15T06:30:13.789Z,77.40
2023-08-15T06:31:19.077Z,77.70
2023-08-15T06:32:29.324Z,77.90
2023-08-15T06:33:33.505Z,78.20
2023-08-15T06:34:38.389Z,78.50
2023-08-15T06:35:42.739Z,78.70
2023-08-15T06:36:46.950Z,79.00
2023-08-15T06:37:51.684Z,79.20
2023-08-15T06:38:55.741Z,79.10
2023-08-15T06:40:02.407Z,79.70
2023-08-15T06:41:06.941Z,80.00
2023-08-15T06:42:14.840Z,80.20
2023-08-15T06:43:18.469Z,80.30
2023-08-15T06:44:27.158Z,80.50
2023-08-15T06:45:34.018Z,80.70
2023-08-15T06:46:38.601Z,80.90
2023-08-15T06:47:41.711Z,81.00
2023-08-15T06:48:49.206Z,81.30
2023-08-15T06:49:55.331Z,81.70
2023-08-15T06:51:02.903Z,81.80
2023-08-15T06:52:08.651Z,81.90
2023-08-15T06:53:13.764Z,82.00
2023-08-15T06:54:17.421Z,82.20
2023-08-15T06:55:23.756Z,82.50
2023-08-15T06:56:27.645Z,82.60
2023-08-15T06:57:32.626Z,82.60
2023-08-15T06:58:36.505Z,82.60
2023-08-15T06:59:43.220Z,82.50
2023-08-15T07:00:47.403Z,82.80
2023-08-15T07:01:54.689Z,83.00
2023-08-15T07:02:58.162Z,83.00
2023-08-15T07:04:05.315Z,83.10
2023-08-15T07:05:12.553Z,83.10
2023-08-15T07:06:18.170Z,83.20
2023-08-15T07:07:22.271Z,83.30
2023-08-15T07:08:30.332Z,83.40
2023-08-15T07:09:36.966Z,83.40
2023-08-15T07:10:43.054Z,83.30
2023-08-15T07:11:48.371Z,83.50
2023-08-15T07:12:53.279Z,83.50
2023-08-15T07:13:57.305Z,83.40
2023-08-15T07:15:07.904Z,83.30
2023-08-15T07:16:12.955Z,83.40
2023-08-15T07:17:16.562Z,83.00
2023-08-15T07:18:21.874Z,83.00
2023-08-15T07:19:25.405Z,82.50
2023-08-15T07:20:34.313Z,82.20
2023-08-15T07:21:42.781Z,81.80
2023-08-15T07:22:47.575Z,81.40
2023-08-15T07:23:51.641Z,80.60
2023-08-15T07:24:57.267Z,80.20
2023-08-15T07:26:01.512Z,79.50
2023-08-15T07:27:06.433Z,79.20
2023-08-15T07:28:10.873Z,78.60
2023-08-15T07:29:15.853Z,78.20
2023-08-15T07:30:23.490Z,77.80
2023-08-15T07:31:29.063Z,76.30
2023-08-15T07:32:33.810Z,75.90
2023-08-15T07:33:39.158Z,75.00
2023-08-15T07:34:43.292Z,74.10
2023-08-15T07:35:48.827Z,72.80
2023-08-15T07:36:52.437Z,72.40
2023-08-15T07:37:58.848Z,70.80
2023-08-15T07:39:07.967Z,70.10
2023-08-15T07:40:22.228Z,69.90
2023-08-15T07:41:26.063Z,69.20
2023-08-15T07:42:31.747Z,68.40
2023-08-15T07:43:35.973Z,68.20
2023-08-15T07:44:41.144Z,67.80
2023-08-15T07:45:46.334Z,67.80
2023-08-15T07:46:51.575Z,68.20
2023-08-15T07:47:57.790Z,68.50
2023-08-15T07:49:03.351Z,68.90
2023-08-15T07:50:18.560Z,69.20
2023-08-15T07:51:24.086Z,69.40
2023-08-15T07:52:29.693Z,69.40
2023-08-15T07:53:34.992Z,69.60
2023-08-15T07:54:47.699Z,69.30
2023-08-15T07:55:53.782Z,69.30
2023-08-15T07:56:58.185Z,69.50
2023-08-15T07:58:03.566Z,69.60
2023-08-15T07:59:07.720Z,70.00
2023-08-15T08:00:14.153Z,70.50
2023-08-15T08:01:21.900Z,70.70
2023-08-15T08:02:26.782Z,71.00
2023-08-15T08:03:31.256Z,70.80
2023-08-15T08:04:36.826Z,70.80
2023-08-15T08:05:41.473Z,70.30
2023-08-15T08:06:46.377Z,69.50
2023-08-15T08:07:49.881Z,69.20
2023-08-15T08:08:55.863Z,68.90
2023-08-15T08:10:00.758Z,67.70
2023-08-15T08:11:05.561Z,67.00
2023-08-15T08:12:11.519Z,66.30
2023-08-15T08:13:21.847Z,65.10
2023-08-15T08:14:26.455Z,65.00
2023-08-15T08:15:33.259Z,65.10
2023-08-15T08:16:41.907Z,63.80
2023-08-15T08:17:47.378Z,63.70
2023-08-15T08:18:50.694Z,63.00
2023-08-15T08:19:56.127Z,62.20
2023-08-15T08:21:03.912Z,61.50
2023-08-15T08:22:09.505Z,61.20
2023-08-15T08:23:14.717Z,61.30
2023-08-15T08:24:19.903Z,61.10
2023-08-15T08:25:26.116Z,61.50
2023-08-15T08:26:31.224Z,61.70
2023-08-15T08:27:35.532Z,61.80
2023-08-15T08:28:41.963Z,62.40
2023-08-15T08:29:46.124Z,62.90
2023-08-15T08:30:54.047Z,63.30
2023-08-15T08:32:00.037Z,63.70
2023-08-15T08:33:05.963Z,64.10
2023-08-15T08:34:15.288Z,64.40
2023-08-15T08:35:21.119Z,64.70
2023-08-15T08:36:27.204Z,65.00
2023-08-15T08:37:37.806Z,65.20
2023-08-15T08:38:41.798Z,66.00
2023-08-15T08:39:47.392Z,66.30
2023-08-15T08:40:51.261Z,66.90
2023-08-15T08:41:57.361Z,67.30
2023-08-15T08:43:02.164Z,67.50
2023-08-15T08:44:08.522Z,67.90
2023-08-15T08:45:13.317Z,68.10
2023-08-15T08:46:20.344Z,68.70
2023-08-15T08:47:28.129Z,68.90
2023-08-15T08:48:36.375Z,69.60
2023-08-15T08:49:42.936Z,69.80
2023-08-15T08:50:48.713Z,70.80
2023-08-15T08:51:54.202Z,70.60
2023-08-15T08:52:59.699Z,70.60
2023-08-15T08:54:03.562Z,70.20
2023-08-15T08:55:09.727Z,70.20
2023-08-15T08:56:18.413Z,70.00
2023-08-15T08:57:25.318Z,69.70
2023-08-15T08:58:32.735Z,69.70
2023-08-15T08:59:40.334Z,69.60
2023-08-15T09:00:45.550Z,69.70
2023-08-15T09:01:54.997Z,69.50
2023-08-15T09:03:00.024Z,69.70
2023-08-15T09:04:05.024Z,69.30
2023-08-15T09:05:10.971Z,69.50
2023-08-15T09:06:16.268Z,69.20
2023-08-15T09:07:21.013Z,68.90
2023-08-15T09:08:26.276Z,69.00
2023-08-15T09:09:29.905Z,69.20
2023-08-15T09:10:35.525Z,69.20
2023-08-15T09:11:39.833Z,69.20
2023-08-15T09:12:47.015Z,69.70
2023-08-15T09:13:51.767Z,70.10
2023-08-15T09:14:56.888Z,70.60
2023-08-15T09:16:01.921Z,70.60
2023-08-15T09:17:07.834Z,71.20
2023-08-15T09:18:14.290Z,71.60
2023-08-15T09:19:19.219Z,71.70
2023-08-15T09:20:23.468Z,72.10
2023-08-15T09:21:29.804Z,72.40
2023-08-15T09:22:34.291Z,72.50
2023-08-15T09:23:42.208Z,73.00
2023-08-15T09:24:52.348Z,73.10
2023-08-15T09:25:57.591Z,73.50
2023-08-15T09:27:08.618Z,73.80
2023-08-15T09:28:16.783Z,73.90
2023-08-15T09:29:22.031Z,74.30
2023-08-15T09:30:29.611Z,74.70
2023-08-15T09:31:35.223Z,75.20
2023-08-15T09:32:41.710Z,75.60
2023-08-15T09:33:48.739Z,75.80
2023-08-15T09:34:52.939Z,76.20
2023-08-15T09:35:59.886Z,76.60
2023-08-15T09:37:03.877Z,76.90
2023-08-15T09:38:10.715Z,76.50
2023-08-15T09:39:15.075Z,76.60
2023-08-15T09:40:25.699Z,77.00
2023-08-15T09:41:30.146Z,77.20
2023-08-15T09:42:35.527Z,77.30
2023-08-15T09:43:49.792Z,77.60
2023-08-15T09:44:55.881Z,77.60
2023-08-15T09:46:01.747Z,77.60
2023-08-15T09:47:09.836Z,77.90
2023-08-15T09:48:15.008Z,77.80
2023-08-15T09:49:21.976Z,78.00
2023-08-15T09:50:26.635Z,77.50
2023-08-15T09:51:32.084Z,77.80
2023-08-15T09:52:42.690Z,77.90
2023-08-15T09:53:55.450Z,77.60
2023-08-15T09:55:02.158Z,77.70
2023-08-15T09:56:06.222Z,77.80
2023-08-15T09:57:11.815Z,77.90
2023-08-15T09:58:23.777Z,77.70
2023-08-15T09:59:30.878Z,77.80
2023-08-15T10:00:36.965Z,77.10
2023-08-15T10:01:48.704Z,77.90
2023-08-15T10:02:59.398Z,78.10
2023-08-15T10:04:10.871Z,78.10
2023-08-15T10:05:22.501Z,78.80
2023-08-15T10:06:29.145Z,79.00
2023-08-15T10:07:37.201Z,79.20
2023-08-15T10:08:44.201Z,79.90
2023-08-15T10:09:49.516Z,80.40
2023-08-15T10:11:01.127Z,80.80
2023-08-15T10:12:10.924Z,80.80
2023-08-15T10:13:16.196Z,80.60
2023-08-15T10:14:25.015Z,80.40
2023-08-15T10:15:35.219Z,80.00
2023-08-15T10:16:39.715Z,79.80
2023-08-15T10:17:45.127Z,79.30
2023-08-15T10:18:59.469Z,79.00
2023-08-15T10:20:07.680Z,79.00
2023-08-15T10:21:13.051Z,78.60
2023-08-15T10:22:23.506Z,78.00
2023-08-15T10:23:33.378Z,77.80
2023-08-15T10:24:37.706Z,77.00
2023-08-15T10:25:45.547Z,76.60
2023-08-15T10:26:52.820Z,76.60
2023-08-15T10:28:05.767Z,77.10
2023-08-15T10:29:10.734Z,77.20
2023-08-15T10:30:30.798Z,77.10
2023-08-15T10:31:40.674Z,77.30
2023-08-15T10:32:44.780Z,76.60
2023-08-15T10:33:53.371Z,77.70
2023-08-15T10:35:01.219Z,78.20
2023-08-15T10:36:11.592Z,78.50
2023-08-15T10:37:36.017Z,79.00
2023-08-15T10:38:46.113Z,79.30
2023-08-15T10:40:10.447Z,79.90
2023-08-15T10:41:19.171Z,80.40
2023-08-15T10:42:22.897Z,80.30
2023-08-15T10:43:29.716Z,80.80
2023-08-15T10:44:39.590Z,80.50
2023-08-15T10:45:52.388Z,81.10
2023-08-15T10:46:58.642Z,81.20
2023-08-15T10:48:03.727Z,81.10
2023-08-15T10:49:14.971Z,80.60
2023-08-15T10:50:20.452Z,80.30
2023-08-15T10:51:29.163Z,80.10
2023-08-15T10:52:34.874Z,79.90
2023-08-15T10:53:40.890Z,79.20
2023-08-15T10:54:45.778Z,78.70
2023-08-15T10:55:51.692Z,78.20
2023-08-15T10:56:56.484Z,77.70
2023-08-15T10:58:05.348Z,77.70
2023-08-15T10:59:11.109Z,77.20
2023-08-15T11:00:20.404Z,75.70
2023-08-15T11:01:26.781Z,75.10
2023-08-15T11:02:33.625Z,74.40
2023-08-15T11:03:37.828Z,73.50
2023-08-15T11:04:43.892Z,72.70
2023-08-15T11:05:47.710Z,72.10
2023-08-15T11:06:54.219Z,71.30
2023-08-15T11:08:14.543Z,71.10
2023-08-15T11:09:20.050Z,71.20
2023-08-15T11:10:24.468Z,71.30
2023-08-15T11:11:29.994Z,71.10
2023-08-15T11:12:37.274Z,70.00
2023-08-15T11:13:44.388Z,70.00
2023-08-15T11:14:51.147Z,69.80
2023-08-15T11:15:56.719Z,70.40
2023-08-15T11:17:01.938Z,70.70
2023-08-15T11:18:07.723Z,71.00
2023-08-15T11:19:15.918Z,71.40
2023-08-15T11:20:22.757Z,72.00
2023-08-15T11:21:30.490Z,72.20
2023-08-15T11:22:35.863Z,72.80
2023-08-15T11:23:42.589Z,73.20
2023-08-15T11:24:53.127Z,73.40
2023-08-15T11:26:03.967Z,73.90
2023-08-15T11:27:08.929Z,74.50
2023-08-15T11:28:12.610Z,75.00
2023-08-15T11:29:18.306Z,75.50
2023-08-15T11:30:22.444Z,75.90
2023-08-15T11:31:27.762Z,75.50
2023-08-15T11:32:31.411Z,75.40
2023-08-15T11:33:36.284Z,76.20
2023-08-15T11:34:41.384Z,76.70
2023-08-15T11:35:49.366Z,77.20
2023-08-15T11:36:54.436Z,77.10
2023-08-15T11:38:02.101Z,77.10
2023-08-15T11:39:12.605Z,77.20
2023-08-15T11:40:17.914Z,77.10
2023-08-15T11:41:22.278Z,77.00
2023-08-15T11:42:26.399Z,76.50
2023-08-15T11:43:33.236Z,75.90
2023-08-15T11:44:38.770Z,75.50
2023-08-15T11:45:45.664Z,74.60
2023-08-15T11:46:59.214Z,74.60
2023-08-15T11:48:05.853Z,74.20
2023-08-15T11:49:20.307Z,73.10
2023-08-15T11:50:42.099Z,72.70
2023-08-15T11:51:50.708Z,72.40
2023-08-15T11:52:55.474Z,72.30
2023-08-15T11:54:01.193Z,72.10
2023-08-15T11:55:12.717Z,72.30
2023-08-15T11:56:18.666Z,72.10
2023-08-15T11:57:40.071Z,72.10
2023-08-15T11:58:48.165Z,71.30
2023-08-15T11:59:54.383Z,70.70
2023-08-15T12:01:04.755Z,70.20
2023-08-15T12:02:12.837Z,69.90
2023-08-15T12:03:19.598Z,69.00
2023-08-15T12:04:25.788Z,69.10
2023-08-15T12:05:31.427Z,68.90
2023-08-15T12:06:36.647Z,69.00
2023-08-15T12:07:40.988Z,69.20
2023-08-15T12:08:48.068Z,69.30
2023-08-15T12:09:56.325Z,69.10
2023-08-15T12:11:10.852Z,69.20
2023-08-15T12:12:21.259Z,69.30
2023-08-15T12:13:37.739Z,69.20
2023-08-15T12:14:51.306Z,69.40
2023-08-15T12:15:56.689Z,69.30
2023-08-15T12:17:00.762Z,69.60
2023-08-15T12:18:06.708Z,69.70
2023-08-15T12:19:10.566Z,69.70
2023-08-15T12:20:15.961Z,69.90
2023-08-15T12:21:25.035Z,69.90
2023-08-15T12:22:31.355Z,70.00
2023-08-15T12:23:35.341Z,70.10
2023-08-15T12:24:40.622Z,69.90
2023-08-15T12:25:44.464Z,70.20
2023-08-15T12:26:51.403Z,70.30
2023-08-15T12:27:55.562Z,70.40
2023-08-15T12:29:01.324Z,70.50
2023-08-15T12:30:12.749Z,70.50
2023-08-15T12:31:22.322Z,70.40
2023-08-15T12:32:27.491Z,70.80
2023-08-15T12:33:46.574Z,71.10
2023-08-15T12:34:52.404Z,71.40
2023-08-15T12:36:00.254Z,71.80
2023-08-15T12:37:04.651Z,72.10
2023-08-15T12:38:10.156Z,72.20
2023-08-15T12:39:13.543Z,72.00
2023-08-15T12:40:30.700Z,72.10
2023-08-15T12:41:35.705Z,72.20
2023-08-15T12:42:45.481Z,72.10
2023-08-15T12:43:49.736Z,71.80
2023-08-15T12:44:59.920Z,71.80
2023-08-15T12:46:07.255Z,71.80
2023-08-15T12:47:17.300Z,71.90
2023-08-15T12:48:21.792Z,71.50
2023-08-15T12:49:26.719Z,71.00
2023-08-15T12:50:30.681Z,70.70
2023-08-15T12:51:35.928Z,70.70
2023-08-15T12:52:40.617Z,70.10
2023-08-15T12:53:46.013Z,69.90
2023-08-15T12:54:50.447Z,69.80
2023-08-15T12:55:56.382Z,69.50
2023-08-15T12:57:00.862Z,69.50
2023-08-15T12:58:07.946Z,69.80
2023-08-15T12:59:14.657Z,69.10
2023-08-15T13:00:24.680Z,69.00
2023-08-15T13:01:29.507Z,68.50
2023-08-15T13:02:35.569Z,68.70
2023-08-15T13:03:39.691Z,68.80
2023-08-15T13:04:45.299Z,69.10
2023-08-15T13:05:49.592Z,69.10
2023-08-15T13:06:58.240Z,69.20
2023-08-15T13:08:02.552Z,68.60
2023-08-15T13:09:07.197Z,68.10
2023-08-15T13:10:12.860Z,68.10
2023-08-15T13:11:18.032Z,68.10
2023-08-15T13:12:24.103Z,68.20
2023-08-15T13:13:32.790Z,68.00
2023-08-15T13:14:38.698Z,67.30
2023-08-15T13:15:45.341Z,67.20
2023-08-15T13:16:50.713Z,66.40
2023-08-15T13:17:56.655Z,66.40
2023-08-15T13:19:01.756Z,65.80
2023-08-15T13:20:08.187Z,66.10
2023-08-15T13:21:13.650Z,66.00
2023-08-15T13:22:17.780Z,66.10
2023-08-15T13:23:23.434Z,66.10
2023-08-15T13:24:28.097Z,65.40
2023-08-15T13:25:33.630Z,65.40
2023-08-15T13:26:37.687Z,65.10
2023-08-15T13:27:46.762Z,65.20
2023-08-15T13:28:53.113Z,64.90
2023-08-15T13:29:58.830Z,63.80
2023-08-15T13:31:03.021Z,63.90
2023-08-15T13:32:09.013Z,63.70
2023-08-15T13:33:14.878Z,63.60
2023-08-15T13:34:21.665Z,63.60
2023-08-15T13:35:28.093Z,62.60
2023-08-15T13:36:36.123Z,62.70
2023-08-15T13:37:40.252Z,62.50
2023-08-15T13:38:47.138Z,62.40
2023-08-15T13:39:55.178Z,62.50
2023-08-15T13:41:02.405Z,62.30
2023-08-15T13:42:07.203Z,62.00
2023-08-15T13:43:13.744Z,61.80
2023-08-15T13:44:19.941Z,61.90
2023-08-15T13:45:25.498Z,61.50
2023-08-15T13:46:30.229Z,61.10
2023-08-15T13:47:35.698Z,61.30
2023-08-15T13:48:41.849Z,60.90
2023-08-15T13:49:52.310Z,60.30
2023-08-15T13:51:00.904Z,60.30
2023-08-15T13:52:09.754Z,60.50
2023-08-15T13:53:13.975Z,60.90
2023-08-15T13:54:19.412Z,61.00
2023-08-15T13:55:23.839Z,61.20
2023-08-15T13:56:30.441Z,61.20
2023-08-15T13:57:34.935Z,61.10
2023-08-15T13:58:42.536Z,61.40
2023-08-15T13:59:49.838Z,61.10
2023-08-15T14:00:55.411Z,61.30
2023-08-15T14:01:59.459Z,61.10
2023-08-15T14:03:04.746Z,60.80
2023-08-15T14:04:09.272Z,61.00
2023-08-15T14:05:14.900Z,60.90
2023-08-15T14:06:18.875Z,60.90
2023-08-15T14:07:26.722Z,60.30
2023-08-15T14:08:31.481Z,59.30
2023-08-15T14:09:37.317Z,59.50
2023-08-15T14:10:44.913Z,60.00
2023-08-15T14:11:50.340Z,60.00